Irondale, Colorado
Current Conditions -  °F | °C
As of 12:53 AM on Thursday 18 Dec 2014 (Local Time) from KDEN Reporting Station
Broken Clouds Broken Clouds  
Wind Chill: 29°   Ceiling: 5500
Heat Index: 29°   Visibility: 9mi
Dew Point: 25°   Wind: 3mph
Humidity: 85%   Direction: 230°SW
Pressure: 29.97"   Gusts: NA
Location:  39.8641°N, 104.821°W
Report Text: KDEN 180753Z 23003KT 9SM BKN055 M02/M04 A2997 RMK AO2 SLP154 T10171039
Loading
Personal Weather Stations






























Interactive Weather Map New forecast layout! Learn more

10-Day Weather Forecast

Advertisements
Track Severe Weather on mobile